Time;durP1;ratioP1;P1;durP2;ratioP2;P2;SDS_P1;SDS_P2;PMS_P1;PMS_P2;Temp;Humidity;BMP_temperature;BMP_pressure;BME280_temperature;BME280_humidity;BME280_pressure;Samples;Min_cycle;Max_cycle;Signal;HPM_P1;HPM_P2
2023/04/16 00:01:05;;;;;;;12.70;10.27;;;;;;;11.48;nan;99607.75;5021227;28;20206;-82
2023/04/16 00:03:31;;;;;;;17.67;10.90;;;;;;;11.43;nan;99603.75;5020472;28;20207;-82
2023/04/16 00:05:56;;;;;;;13.43;9.23;;;;;;;11.41;nan;99601.22;5018535;28;20215;-82
2023/04/16 00:08:23;;;;;;;15.20;11.07;;;;;;;11.42;nan;99599.41;5016476;28;20246;-83
2023/04/16 00:10:50;;;;;;;18.63;12.23;;;;;;;11.43;nan;99595.88;5018565;28;20195;-82
2023/04/16 00:13:15;;;;;;;12.57;9.93;;;;;;;11.43;nan;99599.34;5019631;28;20701;-83
2023/04/16 00:15:40;;;;;;;15.43;9.87;;;;;;;11.43;nan;99598.50;5001724;28;20203;-82
2023/04/16 00:18:06;;;;;;;14.43;10.40;;;;;;;11.45;nan;99599.22;5018450;28;20306;-83
2023/04/16 00:20:31;;;;;;;13.30;9.27;;;;;;;11.47;nan;99599.97;5018089;28;20197;-82
2023/04/16 00:22:57;;;;;;;14.43;10.77;;;;;;;11.48;nan;99591.13;5019496;28;20210;-83
2023/04/16 00:25:22;;;;;;;13.17;9.60;;;;;;;11.48;nan;99599.03;5016471;28;20249;-84
2023/04/16 00:27:48;;;;;;;14.20;9.80;;;;;;;11.47;nan;99595.53;5015375;28;20195;-84
2023/04/16 00:30:13;;;;;;;9.53;8.30;;;;;;;11.47;nan;99600.78;4999490;28;20409;-83
2023/04/16 00:32:39;;;;;;;10.67;8.17;;;;;;;11.47;nan;99598.16;5017895;28;20209;-83
2023/04/16 00:35:05;;;;;;;12.17;9.23;;;;;;;11.46;nan;99593.84;5015175;28;20202;-84
2023/04/16 00:37:30;;;;;;;11.40;8.85;;;;;;;11.47;nan;99597.31;5005090;28;20206;-82
2023/04/16 00:39:56;;;;;;;11.97;8.30;;;;;;;11.50;nan;99602.38;5016366;28;20198;-83
2023/04/16 00:42:21;;;;;;;14.17;8.53;;;;;;;11.52;nan;99597.84;5001655;28;20228;-82
2023/04/16 00:44:46;;;;;;;12.43;8.60;;;;;;;11.53;nan;99602.19;5018326;28;20209;-82
2023/04/16 00:47:12;;;;;;;9.50;8.07;;;;;;;11.51;nan;99604.91;4997602;28;20211;-83
2023/04/16 00:49:38;;;;;;;9.88;7.70;;;;;;;11.51;nan;99604.06;4993676;28;20200;-83
2023/04/16 00:52:03;;;;;;;9.90;7.83;;;;;;;11.51;nan;99602.28;5018763;28;20197;-83
2023/04/16 00:54:30;;;;;;;8.90;7.03;;;;;;;11.51;nan;99599.66;5016886;28;20223;-83
2023/04/16 00:56:58;;;;;;;9.23;7.88;;;;;;;11.50;nan;99595.34;5002681;28;20197;-84
2023/04/16 00:59:23;;;;;;;10.20;7.32;;;;;;;11.52;nan;99592.59;5015262;28;20766;-82
2023/04/16 01:01:49;;;;;;;9.77;7.10;;;;;;;11.50;nan;99597.97;5016133;28;20266;-82
2023/04/16 01:04:14;;;;;;;12.73;8.73;;;;;;;11.49;nan;99603.34;5015251;28;20182;-83
2023/04/16 01:06:41;;;;;;;8.55;7.55;;;;;;;11.47;nan;99599.97;5013859;28;20219;-83
2023/04/16 01:09:06;;;;;;;9.40;7.13;;;;;;;11.43;nan;99596.69;4999085;28;20222;-84
2023/04/16 01:11:32;;;;;;;8.23;7.03;;;;;;;11.39;nan;99597.84;4998029;28;20205;-84
2023/04/16 01:13:57;;;;;;;9.87;8.10;;;;;;;11.40;nan;99604.81;4998008;28;20634;-83
2023/04/16 01:16:23;;;;;;;8.10;7.23;;;;;;;11.43;nan;99603.75;4999900;28;20558;-83
2023/04/16 01:18:48;;;;;;;7.97;6.70;;;;;;;11.42;nan;99604.69;4997431;28;20714;-83
2023/04/16 01:21:13;;;;;;;9.17;6.40;;;;;;;11.40;nan;99603.97;5015486;28;20956;-83
2023/04/16 01:23:39;;;;;;;8.40;7.50;;;;;;;11.38;nan;99600.59;5016556;28;20246;-83
2023/04/16 01:26:05;;;;;;;6.83;5.80;;;;;;;11.36;nan;99610.34;4999433;28;20214;-83
2023/04/16 01:28:30;;;;;;;9.60;7.50;;;;;;;11.34;nan;99609.63;5016610;28;20218;-83
2023/04/16 01:30:56;;;;;;;9.20;7.37;;;;;;;11.29;nan;99616.03;5004146;28;20206;-83
2023/04/16 01:33:53;;;;;;;11.13;8.13;;;;;;;11.26;nan;99610.97;4964819;28;20482;-83
2023/04/16 01:36:19;;;;;;;10.77;7.97;;;;;;;11.24;nan;99609.41;5016928;28;20217;-83
2023/04/16 01:38:44;;;;;;;10.77;8.63;;;;;;;11.21;nan;99613.06;5004332;28;20253;-83
2023/04/16 01:41:10;;;;;;;10.60;8.47;;;;;;;11.21;nan;99607.81;4997906;28;20223;-83
2023/04/16 01:43:35;;;;;;;10.30;8.10;;;;;;;11.22;nan;99619.16;5000761;28;20202;-84
2023/04/16 01:46:19;;;;;;;10.33;8.50;;;;;;;11.23;nan;99619.06;5017729;28;20575;-83
2023/04/16 01:48:45;;;;;;;10.65;8.52;;;;;;;11.23;nan;99613.81;5017512;28;20202;-83
2023/04/16 01:51:13;;;;;;;8.77;7.35;;;;;;;11.24;nan;99612.88;4997682;28;20222;-83
2023/04/16 01:53:38;;;;;;;11.40;8.30;;;;;;;11.23;nan;99624.34;5017583;28;20198;-84
2023/04/16 01:56:04;;;;;;;10.70;8.00;;;;;;;11.23;nan;99624.34;5018940;28;20206;-83
2023/04/16 01:58:32;;;;;;;11.13;7.95;;;;;;;11.23;nan;99623.47;5015780;28;20264;-83
2023/04/16 02:01:01;;;;;;;10.77;8.50;;;;;;;11.22;nan;99622.63;5001309;28;20191;-83
2023/04/16 02:03:30;;;;;;;9.45;6.97;;;;;;;11.24;nan;99618.13;5006071;28;20202;-83
2023/04/16 02:05:57;;;;;;;10.63;8.20;;;;;;;11.24;nan;99622.53;5024390;28;20229;-83
2023/04/16 02:08:26;;;;;;;12.10;8.40;;;;;;;11.24;nan;99627.81;5002299;28;20234;-84
2023/04/16 02:10:56;;;;;;;10.30;8.05;;;;;;;11.25;nan;99629.47;5020612;28;20308;-83
2023/04/16 02:13:24;;;;;;;13.07;9.10;;;;;;;11.25;nan;99627.69;5006209;28;20205;-83
2023/04/16 02:15:51;;;;;;;11.30;9.27;;;;;;;11.25;nan;99624.22;5014445;28;20201;-83
2023/04/16 02:18:23;;;;;;;12.48;8.57;;;;;;;11.26;nan;99628.53;4995760;28;20233;-85
2023/04/16 02:20:49;;;;;;;9.87;8.20;;;;;;;11.24;nan;99625.16;5014502;28;20941;-83
2023/04/16 02:23:14;;;;;;;13.93;9.87;;;;;;;11.18;nan;99629.06;4994895;28;20203;-81
2023/04/16 02:25:41;;;;;;;13.20;8.80;;;;;;;11.16;nan;99630.09;5013887;28;20274;-81
2023/04/16 02:28:10;;;;;;;11.35;9.15;;;;;;;11.14;nan;99634.59;5017082;28;20636;-81
2023/04/16 02:30:39;;;;;;;13.63;9.98;;;;;;;11.13;nan;99632.94;5013069;28;20667;-82
2023/04/16 02:33:07;;;;;;;16.35;11.07;;;;;;;11.12;nan;99637.31;5009914;28;20447;-81
2023/04/16 02:35:34;;;;;;;12.77;10.18;;;;;;;11.09;nan;99632.25;5020279;28;20190;-81
2023/04/16 02:38:01;;;;;;;12.75;9.05;;;;;;;11.07;nan;99634.16;5015746;28;20234;-81
2023/04/16 02:40:27;;;;;;;11.68;9.25;;;;;;;11.08;nan;99636.69;5022434;28;20233;-81
2023/04/16 02:42:53;;;;;;;12.53;11.03;;;;;;;11.07;nan;99634.16;5020587;28;20203;-83
2023/04/16 02:45:19;;;;;;;15.55;9.55;;;;;;;11.05;nan;99636.91;5021735;28;20230;-82
2023/04/16 02:47:45;;;;;;;11.35;9.23;;;;;;;11.06;nan;99633.31;5014836;28;20866;-84
2023/04/16 02:50:11;;;;;;;11.80;8.93;;;;;;;11.02;nan;99634.47;5010247;28;20325;-82
2023/04/16 02:52:36;;;;;;;14.87;10.20;;;;;;;11.01;nan;99635.38;5012900;28;20556;-82
2023/04/16 02:55:02;;;;;;;11.70;10.43;;;;;;;11.01;nan;99637.19;5013851;28;20210;-82
2023/04/16 02:57:27;;;;;;;12.30;8.87;;;;;;;10.95;nan;99641.06;5019560;28;20209;-82
2023/04/16 02:59:53;;;;;;;13.40;8.83;;;;;;;10.90;nan;99631.78;5021233;28;20202;-82
2023/04/16 03:02:18;;;;;;;14.60;9.53;;;;;;;10.84;nan;99636.50;5030350;28;20214;-83
2023/04/16 03:04:43;;;;;;;13.30;8.73;;;;;;;10.82;nan;99637.53;5015236;28;21327;-82
2023/04/16 03:07:11;;;;;;;12.27;10.07;;;;;;;10.83;nan;99631.34;5024201;28;20927;-82
2023/04/16 03:09:36;;;;;;;9.88;8.75;;;;;;;10.87;nan;99631.97;5017624;28;20337;-82
2023/04/16 03:12:02;;;;;;;12.27;9.07;;;;;;;10.89;nan;99630.09;5015333;28;20305;-82
2023/04/16 03:14:28;;;;;;;13.60;9.23;;;;;;;10.91;nan;99631.69;5015135;28;20218;-82
2023/04/16 03:16:53;;;;;;;12.63;9.13;;;;;;;10.91;nan;99615.94;5015843;28;20194;-82
2023/04/16 03:19:18;;;;;;;14.87;9.70;;;;;;;10.92;nan;99622.84;5013385;28;20227;-82
2023/04/16 03:21:44;;;;;;;15.33;10.43;;;;;;;10.94;nan;99625.41;5017779;28;20257;-83
2023/04/16 03:24:10;;;;;;;10.63;8.73;;;;;;;10.93;nan;99624.53;5017778;28;20211;-82
2023/04/16 03:26:35;;;;;;;15.60;10.30;;;;;;;10.94;nan;99625.41;5016145;28;20314;-83
2023/04/16 03:29:01;;;;;;;12.57;9.17;;;;;;;10.98;nan;99621.63;5014116;28;20476;-84
2023/04/16 03:31:29;;;;;;;16.02;9.88;;;;;;;11.02;nan;99626.59;5024410;28;20199;-82
2023/04/16 03:33:55;;;;;;;15.30;9.20;;;;;;;11.01;nan;99624.03;5015819;28;20202;-82
2023/04/16 03:36:21;;;;;;;15.47;9.87;;;;;;;10.95;nan;99625.28;5016086;28;20521;-83
2023/04/16 03:38:48;;;;;;;12.82;10.25;;;;;;;10.95;nan;99624.44;5016945;28;20782;-82
2023/04/16 03:41:14;;;;;;;14.13;11.27;;;;;;;10.92;nan;99624.66;5022157;28;20244;-83
2023/04/16 03:43:40;;;;;;;11.77;9.03;;;;;;;10.89;nan;99625.69;5014999;28;20211;-84
2023/04/16 03:46:06;;;;;;;12.82;9.50;;;;;;;10.83;nan;99628.72;5014425;28;20215;-83
2023/04/16 03:48:31;;;;;;;12.23;9.93;;;;;;;10.78;nan;99623.75;5018428;28;20199;-82
2023/04/16 03:50:57;;;;;;;16.10;9.20;;;;;;;10.77;nan;99632.56;5016125;28;20199;-82
2023/04/16 03:53:23;;;;;;;12.17;9.30;;;;;;;10.77;nan;99635.19;5015829;28;20206;-83
2023/04/16 03:55:52;;;;;;;14.53;10.23;;;;;;;10.81;nan;99638.47;5014353;28;21425;-83
2023/04/16 03:58:19;;;;;;;10.95;8.25;;;;;;;10.85;nan;99635.56;5025015;28;20568;-83
2023/04/16 04:00:45;;;;;;;13.88;9.73;;;;;;;10.90;nan;99631.78;5015245;28;20341;-83
2023/04/16 04:03:15;;;;;;;12.63;9.52;;;;;;;10.95;nan;99634.97;5016468;28;20194;-83
2023/04/16 04:05:43;;;;;;;11.70;8.65;;;;;;;10.95;nan;99630.53;5015416;28;20203;-83
2023/04/16 04:08:11;;;;;;;12.40;8.77;;;;;;;10.98;nan;99635.59;5034156;28;20241;-84
2023/04/16 04:10:37;;;;;;;13.27;10.13;;;;;;;11.03;nan;99636.13;5009065;23;21013;-78
2023/04/16 04:13:05;;;;;;;10.50;8.35;;;;;;;11.07;nan;99639.41;4997052;28;20190;-78
2023/04/16 04:15:32;;;;;;;11.27;9.02;;;;;;;11.08;nan;99644.56;5011101;28;20190;-78
2023/04/16 04:17:58;;;;;;;13.40;9.33;;;;;;;11.10;nan;99643.63;5011086;28;20253;-78
2023/04/16 04:20:23;;;;;;;11.57;9.47;;;;;;;11.11;nan;99634.81;5019193;28;20210;-79
2023/04/16 04:22:50;;;;;;;8.82;7.97;;;;;;;11.10;nan;99638.34;5013273;28;20450;-79
2023/04/16 04:25:18;;;;;;;12.82;9.73;;;;;;;11.08;nan;99641.94;5009378;28;20207;-79
2023/04/16 04:27:43;;;;;;;15.00;9.10;;;;;;;11.05;nan;99651.81;5014312;28;20203;-79
2023/04/16 04:30:09;;;;;;;9.83;8.50;;;;;;;11.01;nan;99645.06;5012648;28;20207;-79
2023/04/16 04:32:35;;;;;;;14.30;8.57;;;;;;;10.98;nan;99640.84;5015096;28;20224;-80
2023/04/16 04:35:02;;;;;;;11.13;9.03;;;;;;;10.96;nan;99647.97;5016577;28;20222;-80
2023/04/16 04:37:27;;;;;;;14.80;9.77;;;;;;;10.97;nan;99639.19;5014753;28;20219;-80
2023/04/16 04:39:53;;;;;;;9.83;8.23;;;;;;;10.99;nan;99652.19;5017493;28;20203;-80
2023/04/16 04:42:19;;;;;;;11.90;8.17;;;;;;;10.98;nan;99656.63;5018255;28;20203;-80
2023/04/16 04:44:45;;;;;;;11.90;9.57;;;;;;;10.98;nan;99658.41;5018121;28;20230;-80
2023/04/16 04:47:11;;;;;;;13.77;9.77;;;;;;;10.97;nan;99654.09;5020780;28;20222;-80
2023/04/16 04:49:36;;;;;;;13.77;9.33;;;;;;;10.96;nan;99661.13;5025486;28;20221;-80
2023/04/16 04:52:02;;;;;;;12.13;8.77;;;;;;;10.97;nan;99659.38;5026504;28;20202;-80
2023/04/16 04:54:31;;;;;;;13.75;8.00;;;;;;;10.98;nan;99661.03;5023755;28;20192;-80
2023/04/16 04:56:56;;;;;;;10.07;8.68;;;;;;;11.00;nan;99657.38;5017509;28;20260;-80
2023/04/16 04:59:23;;;;;;;14.23;10.03;;;;;;;11.02;nan;99662.53;5020739;28;20222;-81
2023/04/16 05:01:49;;;;;;;11.90;9.90;;;;;;;11.05;nan;99665.81;5025523;28;20226;-80
2023/04/16 05:04:14;;;;;;;12.37;10.20;;;;;;;11.06;nan;99666.63;5022306;28;20266;-80
2023/04/16 05:06:40;;;;;;;13.57;8.80;;;;;;;11.06;nan;99670.09;5020527;28;20241;-80
2023/04/16 05:09:10;;;;;;;12.80;9.20;;;;;;;11.05;nan;99670.22;5018356;28;20250;-80
2023/04/16 05:11:35;;;;;;;12.98;9.20;;;;;;;11.07;nan;99671.81;5018696;28;20213;-79
2023/04/16 05:14:01;;;;;;;9.80;8.80;;;;;;;11.09;nan;99674.31;5018359;28;20567;-80
2023/04/16 05:16:26;;;;;;;10.07;8.70;;;;;;;11.05;nan;99675.47;5025345;28;20199;-80
2023/04/16 05:18:52;;;;;;;10.07;7.63;;;;;;;11.00;nan;99672.31;5016324;28;20217;-79
2023/04/16 05:21:17;;;;;;;11.03;8.90;;;;;;;10.98;nan;99679.44;5015963;28;20202;-80
2023/04/16 05:23:42;;;;;;;13.70;8.57;;;;;;;10.97;nan;99686.47;5019247;28;20196;-80
2023/04/16 05:26:08;;;;;;;11.10;8.30;;;;;;;11.00;nan;99680.19;5017918;28;20302;-81
2023/04/16 05:28:33;;;;;;;12.83;8.87;;;;;;;11.02;nan;99688.81;5019663;28;20199;-80
2023/04/16 05:30:59;;;;;;;13.07;9.77;;;;;;;11.03;nan;99701.84;5018917;28;20190;-80
2023/04/16 05:33:24;;;;;;;11.90;8.63;;;;;;;11.04;nan;99702.69;5020494;28;20237;-81
2023/04/16 05:35:50;;;;;;;15.67;9.80;;;;;;;11.05;nan;99693.88;5023687;28;20201;-80
2023/04/16 05:38:15;;;;;;;12.33;9.53;;;;;;;11.04;nan;99695.66;5027470;28;20211;-80
2023/04/16 05:40:40;;;;;;;13.30;9.17;;;;;;;11.04;nan;99708.81;5026375;28;20198;-80
2023/04/16 05:43:06;;;;;;;12.20;8.67;;;;;;;11.05;nan;99707.88;5023084;28;20222;-80
2023/04/16 05:45:32;;;;;;;12.03;9.67;;;;;;;11.06;nan;99712.16;5021451;28;20199;-80
2023/04/16 05:47:57;;;;;;;11.40;9.40;;;;;;;11.09;nan;99719.00;5027556;28;20195;-80
2023/04/16 05:50:23;;;;;;;10.70;8.40;;;;;;;11.08;nan;99720.81;5026912;28;20301;-80
2023/04/16 05:52:48;;;;;;;9.97;8.83;;;;;;;11.06;nan;99720.06;5026078;28;20210;-81
2023/04/16 05:55:14;;;;;;;11.00;8.60;;;;;;;11.04;nan;99718.47;5019637;28;20207;-80
2023/04/16 05:57:39;;;;;;;10.50;8.00;;;;;;;11.01;nan;99723.91;5019142;28;20217;-81
2023/04/16 06:00:05;;;;;;;13.53;9.47;;;;;;;10.98;nan;99724.13;5018224;28;20519;-80
2023/04/16 06:02:37;;;;;;;10.10;7.80;;;;;;;10.95;nan;99734.81;5011646;28;20187;-79
2023/04/16 06:05:03;;;;;;;9.30;7.87;;;;;;;10.93;nan;99737.53;5015086;28;20230;-80
2023/04/16 06:07:28;;;;;;;13.37;9.47;;;;;;;10.92;nan;99741.13;5013516;28;20214;-80
2023/04/16 06:09:53;;;;;;;10.43;8.40;;;;;;;10.93;nan;99736.69;5015850;28;20233;-80
2023/04/16 06:12:19;;;;;;;12.53;9.17;;;;;;;10.93;nan;99737.53;5012272;28;20552;-80
2023/04/16 06:14:45;;;;;;;12.40;8.57;;;;;;;10.95;nan;99740.09;5009325;28;20315;-80
2023/04/16 06:17:11;;;;;;;9.93;8.80;;;;;;;10.95;nan;99738.28;5011743;28;20225;-80
2023/04/16 06:19:36;;;;;;;9.53;7.80;;;;;;;10.97;nan;99743.47;5012065;28;20230;-79
2023/04/16 06:22:01;;;;;;;11.80;9.20;;;;;;;10.95;nan;99745.34;5017037;28;20461;-80
2023/04/16 06:24:27;;;;;;;12.00;9.67;;;;;;;10.95;nan;99740.09;5017787;28;20925;-79
2023/04/16 06:26:53;;;;;;;13.43;9.20;;;;;;;10.96;nan;99749.66;5020947;28;20214;-80
2023/04/16 06:29:18;;;;;;;13.30;9.13;;;;;;;10.96;nan;99741.75;5021305;28;20240;-79
2023/04/16 06:31:44;;;;;;;9.90;8.87;;;;;;;10.94;nan;99744.50;5022773;28;20679;-80
2023/04/16 06:34:09;;;;;;;11.17;9.53;;;;;;;10.94;nan;99748.91;5022980;28;20261;-79
2023/04/16 06:36:36;;;;;;;14.40;8.70;;;;;;;10.95;nan;99755.84;5023081;28;20233;-80
2023/04/16 06:39:02;;;;;;;11.23;8.65;;;;;;;10.95;nan;99763.75;5024336;28;20232;-80
2023/04/16 06:41:27;;;;;;;12.80;9.67;;;;;;;10.95;nan;99754.06;5024564;28;20248;-80
2023/04/16 06:43:52;;;;;;;10.50;7.73;;;;;;;10.94;nan;99759.44;5020205;28;20778;-80
2023/04/16 06:46:18;;;;;;;8.97;6.57;;;;;;;10.89;nan;99764.13;5023702;28;20230;-79
2023/04/16 06:48:44;;;;;;;7.63;6.20;;;;;;;10.81;nan;99769.84;5031340;28;20261;-79
2023/04/16 06:51:10;;;;;;;7.67;6.03;;;;;;;10.76;nan;99771.91;5031029;28;20647;-79
2023/04/16 06:53:36;;;;;;;5.95;5.38;;;;;;;10.72;nan;99768.66;5023035;28;20209;-79
2023/04/16 06:56:02;;;;;;;7.90;6.43;;;;;;;10.68;nan;99782.06;5021706;28;20194;-79
2023/04/16 06:58:27;;;;;;;7.40;6.40;;;;;;;10.62;nan;99764.88;5024463;28;20466;-79
2023/04/16 07:00:52;;;;;;;5.70;5.17;;;;;;;10.59;nan;99778.22;5024252;28;20217;-79
2023/04/16 07:03:18;;;;;;;7.60;6.50;;;;;;;10.52;nan;99780.34;5024939;28;20206;-79
2023/04/16 07:05:43;;;;;;;9.07;7.33;;;;;;;10.49;nan;99782.34;5021083;28;20238;-79
2023/04/16 07:08:09;;;;;;;9.60;6.73;;;;;;;10.46;nan;99778.09;5029821;28;20294;-79
2023/04/16 07:10:34;;;;;;;9.37;7.73;;;;;;;10.48;nan;99780.66;5027700;28;20230;-80
2023/04/16 07:13:00;;;;;;;8.00;7.20;;;;;;;10.49;nan;99784.97;5025098;28;20199;-79
2023/04/16 07:15:26;;;;;;;7.30;6.30;;;;;;;10.51;nan;99786.56;5030017;28;20334;-80
2023/04/16 07:17:51;;;;;;;8.87;6.50;;;;;;;10.50;nan;99787.47;5021874;28;20202;-79
2023/04/16 07:20:16;;;;;;;7.73;6.07;;;;;;;10.49;nan;99788.41;5016188;28;20215;-79
2023/04/16 07:22:42;;;;;;;8.77;7.87;;;;;;;10.50;nan;99790.09;5017033;28;20210;-79
2023/04/16 07:25:08;;;;;;;9.13;8.30;;;;;;;10.53;nan;99792.56;5014849;28;20858;-79
2023/04/16 07:27:33;;;;;;;7.70;6.90;;;;;;;10.52;nan;99782.97;5020771;28;20229;-79
2023/04/16 07:29:59;;;;;;;7.63;6.83;;;;;;;10.49;nan;99784.97;5017235;28;20464;-79
2023/04/16 07:32:24;;;;;;;10.20;8.60;;;;;;;10.48;nan;99791.16;5017996;28;20995;-79
2023/04/16 07:34:49;;;;;;;7.57;6.63;;;;;;;10.50;nan;99784.00;5016920;28;20237;-79
2023/04/16 07:37:15;;;;;;;8.43;7.43;;;;;;;10.53;nan;99787.31;5018150;28;20207;-79
2023/04/16 07:39:40;;;;;;;10.20;7.23;;;;;;;10.55;nan;99792.47;5017685;28;20206;-79
2023/04/16 07:42:06;;;;;;;10.90;7.90;;;;;;;10.55;nan;99795.94;5018815;28;20291;-79
2023/04/16 07:44:31;;;;;;;8.70;7.13;;;;;;;10.58;nan;99792.28;5018559;28;20197;-79
2023/04/16 07:46:57;;;;;;;9.17;7.50;;;;;;;10.60;nan;99798.28;5017493;28;20211;-79
2023/04/16 07:49:22;;;;;;;10.13;8.97;;;;;;;10.60;nan;99790.41;5026666;28;20211;-80
2023/04/16 07:51:48;;;;;;;8.20;6.50;;;;;;;10.62;nan;99802.50;5021247;28;20198;-80
2023/04/16 07:54:13;;;;;;;10.20;6.47;;;;;;;10.64;nan;99802.44;5020686;28;21211;-79
2023/04/16 07:56:39;;;;;;;11.40;8.00;;;;;;;10.68;nan;99800.44;5024601;28;20262;-80
2023/04/16 07:59:04;;;;;;;10.77;8.00;;;;;;;10.65;nan;99806.72;5024747;28;20202;-80
2023/04/16 08:01:30;;;;;;;9.00;7.07;;;;;;;10.66;nan;99804.94;5025552;28;20217;-79
2023/04/16 08:03:56;;;;;;;9.00;8.10;;;;;;;10.67;nan;99807.50;5020466;28;20293;-80
2023/04/16 08:06:21;;;;;;;9.60;6.40;;;;;;;10.71;nan;99816.84;5017688;28;20746;-80
2023/04/16 08:08:46;;;;;;;9.60;7.50;;;;;;;10.72;nan;99818.56;5019064;28;20214;-80
2023/04/16 08:11:12;;;;;;;9.20;6.70;;;;;;;10.73;nan;99819.41;5018419;28;20206;-79
2023/04/16 08:13:37;;;;;;;7.67;6.97;;;;;;;10.75;nan;99826.25;5022977;28;20202;-80
2023/04/16 08:16:03;;;;;;;8.03;6.20;;;;;;;10.78;nan;99828.69;5028207;28;20210;-80
2023/04/16 08:18:28;;;;;;;9.37;8.43;;;;;;;10.83;nan;99831.06;5019724;28;20443;-80
2023/04/16 08:20:54;;;;;;;8.53;6.40;;;;;;;10.83;nan;99831.06;5011792;28;20199;-80
2023/04/16 08:23:20;;;;;;;8.20;6.37;;;;;;;10.81;nan;99840.81;5016414;28;20565;-80
2023/04/16 08:25:46;;;;;;;6.90;6.10;;;;;;;10.78;nan;99839.19;5019756;28;20711;-80
2023/04/16 08:28:12;;;;;;;11.10;6.95;;;;;;;10.76;nan;99840.22;5018005;28;20584;-80
2023/04/16 08:30:37;;;;;;;9.03;6.47;;;;;;;10.77;nan;99842.75;5017285;28;20326;-80
2023/04/16 08:33:03;;;;;;;9.77;6.43;;;;;;;10.77;nan;99840.13;5017932;28;20217;-81
2023/04/16 08:35:28;;;;;;;8.87;6.20;;;;;;;10.75;nan;99852.53;5018907;28;20700;-80
2023/04/16 08:37:53;;;;;;;9.80;6.40;;;;;;;10.73;nan;99846.53;5018835;28;21050;-80
2023/04/16 08:40:19;;;;;;;7.57;5.70;;;;;;;10.71;nan;99848.38;5017463;28;20841;-79
2023/04/16 08:42:51;;;;;;;7.17;6.33;;;;;;;10.71;nan;99848.38;5021874;28;20206;-80
2023/04/16 08:45:17;;;;;;;8.35;6.82;;;;;;;10.72;nan;99843.97;5018185;28;20199;-80
2023/04/16 08:47:52;;;;;;;10.70;6.17;;;;;;;10.73;nan;99854.41;5019567;28;20210;-80
2023/04/16 08:50:22;;;;;;;8.10;6.50;;;;;;;10.75;nan;99849.91;5019490;28;20249;-79
2023/04/16 08:52:55;;;;;;;8.88;7.53;;;;;;;10.74;nan;99855.25;5019523;28;20285;-80
2023/04/16 08:55:28;;;;;;;8.73;7.13;;;;;;;10.75;nan;99860.41;5020443;28;20782;-80
2023/04/16 08:57:57;;;;;;;8.23;6.20;;;;;;;10.70;nan;99857.22;5025744;28;20194;-81
2023/04/16 09:00:23;;;;;;;8.85;7.35;;;;;;;10.68;nan;99859.09;5017755;28;20207;-80
2023/04/16 09:02:50;;;;;;;8.55;6.28;;;;;;;10.67;nan;99864.44;5018111;28;20230;-80
2023/04/16 09:05:16;;;;;;;7.53;6.75;;;;;;;10.65;nan;99859.28;5019176;28;20298;-80
2023/04/16 09:07:46;;;;;;;11.68;8.10;;;;;;;10.69;nan;99866.00;5018191;28;20687;-80
2023/04/16 09:10:13;;;;;;;9.80;7.25;;;;;;;10.74;nan;99869.22;5017181;28;20242;-80
2023/04/16 09:12:40;;;;;;;13.10;7.43;;;;;;;10.79;nan;99871.56;5018131;28;20191;-80
2023/04/16 09:15:08;;;;;;;8.70;5.97;;;;;;;10.81;nan;99870.53;5015997;28;20289;-80
2023/04/16 09:17:34;;;;;;;13.50;7.68;;;;;;;10.81;nan;99865.28;5013323;28;20207;-80
2023/04/16 09:20:00;;;;;;;10.93;8.00;;;;;;;10.85;nan;99871.19;5011188;28;20207;-80
2023/04/16 09:22:25;;;;;;;11.07;7.67;;;;;;;10.93;nan;99866.31;5008059;28;20722;-79
2023/04/16 09:24:50;;;;;;;9.93;8.37;;;;;;;11.00;nan;99872.91;5011648;28;20203;-79
2023/04/16 09:27:16;;;;;;;10.53;8.00;;;;;;;11.03;nan;99874.50;5013910;28;20721;-80
2023/04/16 09:29:41;;;;;;;10.10;9.10;;;;;;;11.02;nan;99870.19;5011137;28;20579;-79
2023/04/16 09:32:08;;;;;;;12.23;7.80;;;;;;;11.04;nan;99868.28;5016026;28;20205;-79
2023/04/16 09:34:53;;;;;;;10.10;8.25;;;;;;;11.05;nan;99872.63;5017958;28;20205;-79
2023/04/16 09:37:18;;;;;;;11.40;7.55;;;;;;;11.04;nan;99873.53;5018968;28;20191;-80
2023/04/16 09:39:51;;;;;;;9.53;7.50;;;;;;;11.04;nan;99877.03;5018217;28;20209;-80
2023/04/16 09:42:24;;;;;;;10.00;8.05;;;;;;;11.04;nan;99878.81;5014933;28;20199;-79
2023/04/16 09:44:51;;;;;;;11.93;8.25;;;;;;;11.03;nan;99880.59;5018307;28;20199;-79
2023/04/16 09:47:16;;;;;;;12.30;7.85;;;;;;;11.00;nan;99888.66;5006978;28;20222;-80
2023/04/16 09:49:42;;;;;;;11.13;9.97;;;;;;;11.00;nan;99880.78;5017596;28;20206;-80
2023/04/16 09:52:13;;;;;;;13.30;8.90;;;;;;;10.99;nan;99896.63;5017571;28;20229;-80
2023/04/16 09:54:45;;;;;;;12.57;8.27;;;;;;;10.94;nan;99886.44;5012916;28;20547;-79
2023/04/16 09:57:10;;;;;;;11.45;7.22;;;;;;;10.88;nan;99888.56;5012669;28;20218;-79
2023/04/16 09:59:36;;;;;;;11.20;7.60;;;;;;;10.85;nan;99893.09;5012284;28;20206;-80
2023/04/16 10:02:02;;;;;;;8.50;6.70;;;;;;;10.87;nan;99894.78;5014217;28;20202;-79
2023/04/16 10:04:27;;;;;;;9.87;7.00;;;;;;;10.89;nan;99900.78;5016185;28;20284;-79
2023/04/16 10:07:05;;;;;;;13.73;8.20;;;;;;;10.87;nan;99895.59;5021572;28;20296;-80
2023/04/16 10:09:36;;;;;;;9.07;6.88;;;;;;;10.89;nan;99900.78;5035637;23;20227;-80
2023/04/16 10:12:01;;;;;;;11.32;7.20;;;;;;;10.89;nan;99903.41;5016149;28;20511;-83
2023/04/16 10:14:26;;;;;;;10.67;7.30;;;;;;;10.90;nan;99900.69;5025040;28;20293;-83
2023/04/16 10:16:52;;;;;;;13.60;9.87;;;;;;;10.94;nan;99906.63;5036611;28;20198;-83
2023/04/16 10:19:19;;;;;;;9.87;7.50;;;;;;;10.97;nan;99909.88;5028947;28;20221;-82
2023/04/16 10:21:45;;;;;;;12.18;7.93;;;;;;;10.99;nan;99915.91;5031677;28;20479;-81
2023/04/16 10:24:11;;;;;;;11.87;9.57;;;;;;;11.01;nan;99915.78;5038189;28;20206;-80
2023/04/16 10:26:39;;;;;;;10.45;8.32;;;;;;;11.02;nan;99909.63;5036116;28;20217;-80
2023/04/16 10:29:08;;;;;;;13.75;11.80;;;;;;;11.01;nan;99923.69;5034872;28;20233;-84
2023/04/16 10:31:35;;;;;;;20.27;9.43;;;;;;;10.96;nan;99917.84;5037310;28;20222;-82
2023/04/16 10:34:02;;;;;;;16.25;11.05;;;;;;;10.94;nan;99923.22;5035674;28;20209;-81
2023/04/16 10:36:27;;;;;;;11.00;8.68;;;;;;;10.88;nan;99918.31;5037281;28;20289;-81
2023/04/16 10:38:57;;;;;;;9.90;7.23;;;;;;;10.83;nan;99915.97;5033870;28;20219;-81
2023/04/16 10:41:25;;;;;;;13.18;8.93;;;;;;;10.83;nan;99918.59;5035960;28;20195;-81
2023/04/16 10:43:51;;;;;;;11.75;7.57;;;;;;;10.87;nan;99926.31;5032088;28;20199;-81
2023/04/16 10:46:33;;;;;;;14.18;10.48;;;;;;;10.84;nan;99922.06;5033493;28;20249;-82
2023/04/16 10:49:00;;;;;;;11.95;8.15;;;;;;;10.84;nan;99917.66;5034848;28;20202;-82
2023/04/16 10:51:33;;;;;;;12.05;10.18;;;;;;;10.91;nan;99919.91;5036742;28;21893;-81
2023/04/16 10:54:28;;;;;;;18.52;12.75;;;;;;;11.01;nan;99914.00;5034043;28;20195;-81
2023/04/16 10:57:02;;;;;;;14.30;10.10;;;;;;;11.12;nan;99920.41;5025114;28;20290;-82
2023/04/16 10:59:30;;;;;;;12.45;8.50;;;;;;;11.19;nan;99917.31;5023289;28;20214;-82
2023/04/16 11:01:58;;;;;;;19.70;11.50;;;;;;;11.29;nan;99913.19;5026281;28;20245;-81
2023/04/16 11:04:23;;;;;;;13.95;8.98;;;;;;;11.38;nan;99916.19;5025531;28;20222;-81
2023/04/16 11:07:14;;;;;;;13.60;8.10;;;;;;;11.45;nan;99913.09;5027821;28;20531;-82
2023/04/16 11:09:46;;;;;;;10.20;7.60;;;;;;;11.48;nan;99914.69;5024866;28;20621;-81
2023/04/16 11:12:33;;;;;;;11.95;8.95;;;;;;;11.49;nan;99919.81;5027033;28;20185;-82
2023/04/16 11:15:08;;;;;;;10.60;8.80;;;;;;;11.54;nan;99914.28;5027333;28;20256;-81
2023/04/16 11:17:38;;;;;;;14.02;10.05;;;;;;;11.63;nan;99916.31;5026910;28;20198;-81
2023/04/16 11:20:15;;;;;;;11.60;7.10;;;;;;;11.67;nan;99917.00;5023953;28;20206;-81
2023/04/16 11:22:45;;;;;;;14.65;10.13;;;;;;;11.70;nan;99916.81;5026064;28;20199;-82
2023/04/16 11:25:11;;;;;;;10.43;8.20;;;;;;;11.70;nan;99920.28;5025567;28;20237;-81
2023/04/16 11:27:37;;;;;;;12.40;9.45;;;;;;;11.74;nan;99919.13;5026264;28;20218;-81
2023/04/16 11:30:13;;;;;;;11.17;8.80;;;;;;;11.81;nan;99913.50;5025887;28;20214;-81
2023/04/16 11:32:39;;;;;;;10.38;7.95;;;;;;;11.88;nan;99909.53;5027734;28;20186;-81
2023/04/16 11:35:13;;;;;;;12.73;8.63;;;;;;;12.01;nan;99913.06;5008604;28;20221;-81
2023/04/16 11:37:47;;;;;;;8.43;6.70;;;;;;;12.12;nan;99902.72;5017382;28;20242;-83
2023/04/16 11:40:12;;;;;;;10.45;6.97;;;;;;;12.22;nan;99913.47;5015633;28;20221;-84
2023/04/16 11:42:39;;;;;;;11.83;8.23;;;;;;;12.29;nan;99909.50;5024920;28;20195;-82